createdAt,value
2023-05-14T00:00:54.414Z,9.60
2023-05-14T00:03:21.311Z,9.70
2023-05-14T00:05:48.623Z,9.70
2023-05-14T00:08:17.723Z,9.70
2023-05-14T00:10:44.495Z,9.70
2023-05-14T00:13:14.250Z,9.70
2023-05-14T00:15:43.686Z,9.80
2023-05-14T00:18:12.294Z,9.70
2023-05-14T00:20:39.294Z,9.70
2023-05-14T00:23:06.209Z,9.80
2023-05-14T00:25:33.050Z,9.90
2023-05-14T00:27:59.922Z,9.90
2023-05-14T00:30:26.788Z,10.00
2023-05-14T00:32:53.683Z,10.10
2023-05-14T00:35:21.554Z,10.20
2023-05-14T00:37:48.451Z,10.20
2023-05-14T00:40:15.569Z,10.30
2023-05-14T00:42:42.566Z,10.30
2023-05-14T00:45:10.018Z,10.40
2023-05-14T00:47:39.536Z,10.40
2023-05-14T00:50:07.069Z,10.40
2023-05-14T00:52:34.425Z,10.40
2023-05-14T00:55:06.096Z,10.40
2023-05-14T00:57:34.020Z,10.40
2023-05-14T01:00:01.952Z,10.50
2023-05-14T01:02:28.747Z,10.50
2023-05-14T01:04:56.066Z,10.60
2023-05-14T01:08:01.409Z,10.50
2023-05-14T01:10:31.213Z,10.50
2023-05-14T01:13:22.606Z,10.50
2023-05-14T01:15:49.788Z,10.50
2023-05-14T01:18:19.283Z,10.50
2023-05-14T01:20:46.316Z,10.50
2023-05-14T01:23:13.250Z,10.60
2023-05-14T01:25:40.102Z,10.60
2023-05-14T01:28:19.430Z,10.60
2023-05-14T01:31:12.059Z,10.70
2023-05-14T01:33:42.398Z,10.70
2023-05-14T01:36:10.347Z,10.60
2023-05-14T01:38:37.366Z,10.60
2023-05-14T01:41:05.429Z,10.60
2023-05-14T01:43:32.590Z,10.50
2023-05-14T01:45:59.496Z,10.40
2023-05-14T01:48:26.306Z,10.40
2023-05-14T01:50:53.164Z,10.30
2023-05-14T01:53:19.958Z,10.30
2023-05-14T01:55:46.756Z,10.40
2023-05-14T01:58:13.677Z,10.30
2023-05-14T02:00:40.484Z,10.40
2023-05-14T02:03:07.356Z,10.40
2023-05-14T02:05:34.170Z,10.40
2023-05-14T02:08:01.119Z,10.30
2023-05-14T02:10:27.925Z,10.30
2023-05-14T02:12:54.758Z,10.30
2023-05-14T02:15:21.761Z,10.30
2023-05-14T02:17:48.733Z,10.30
2023-05-14T02:20:15.955Z,10.20
2023-05-14T02:22:45.670Z,10.30
2023-05-14T02:25:12.934Z,10.30
2023-05-14T02:27:39.874Z,10.20
2023-05-14T02:30:07.271Z,10.30
2023-05-14T02:32:34.266Z,10.30
2023-05-14T02:35:01.261Z,10.40
2023-05-14T02:37:28.332Z,10.30
2023-05-14T02:39:55.200Z,10.30
2023-05-14T02:42:22.193Z,10.30
2023-05-14T02:44:49.061Z,10.30
2023-05-14T02:47:16.085Z,10.20
2023-05-14T02:49:42.873Z,10.20
2023-05-14T02:52:09.849Z,10.20
2023-05-14T02:54:36.828Z,10.20
2023-05-14T02:57:03.938Z,10.10
2023-05-14T02:59:31.553Z,10.00
2023-05-14T03:01:59.061Z,10.10
2023-05-14T03:04:26.358Z,10.00
2023-05-14T03:06:53.345Z,10.00
2023-05-14T03:09:20.249Z,9.90
2023-05-14T03:11:47.183Z,10.00
2023-05-14T03:14:14.268Z,10.00
2023-05-14T03:16:42.489Z,10.00
2023-05-14T03:19:10.190Z,10.00
2023-05-14T03:21:37.208Z,10.00
2023-05-14T03:24:04.098Z,9.90
2023-05-14T03:26:30.864Z,9.90
2023-05-14T03:28:57.721Z,9.90
2023-05-14T03:31:24.679Z,9.90
2023-05-14T03:33:51.735Z,9.80
2023-05-14T03:36:20.834Z,9.80
2023-05-14T03:38:47.604Z,9.80
2023-05-14T03:41:14.380Z,9.80
2023-05-14T03:43:41.151Z,9.70
2023-05-14T03:46:08.014Z,9.70
2023-05-14T03:48:34.822Z,9.70
2023-05-14T03:51:01.861Z,9.70
2023-05-14T03:53:28.635Z,9.50
2023-05-14T03:55:55.514Z,9.60
2023-05-14T03:58:22.395Z,9.60
2023-05-14T04:00:49.242Z,9.70
2023-05-14T04:03:16.181Z,9.70
2023-05-14T04:05:46.188Z,9.70
2023-05-14T04:08:12.969Z,9.70
2023-05-14T04:10:39.852Z,9.80
2023-05-14T04:13:06.702Z,9.70
2023-05-14T04:15:33.495Z,9.60
2023-05-14T04:18:00.371Z,9.60
2023-05-14T04:20:27.304Z,9.60
2023-05-14T04:22:54.367Z,9.60
2023-05-14T04:25:21.383Z,9.60
2023-05-14T04:27:48.221Z,9.70
2023-05-14T04:30:15.466Z,9.70
2023-05-14T04:32:42.638Z,9.80
2023-05-14T04:35:10.544Z,9.80
2023-05-14T04:37:37.320Z,9.90
2023-05-14T04:40:05.773Z,9.80
2023-05-14T04:42:32.677Z,9.70
2023-05-14T04:44:59.653Z,9.80
2023-05-14T04:47:26.676Z,9.80
2023-05-14T04:49:53.493Z,9.70
2023-05-14T04:52:20.630Z,9.70
2023-05-14T04:54:47.634Z,9.70
2023-05-14T04:57:14.753Z,9.60
2023-05-14T04:59:41.617Z,9.50
2023-05-14T05:02:11.168Z,9.60
2023-05-14T05:04:38.620Z,9.80
2023-05-14T05:07:06.360Z,9.90
2023-05-14T05:09:33.305Z,9.90
2023-05-14T05:12:05.482Z,10.00
2023-05-14T05:14:32.315Z,10.00
2023-05-14T05:16:59.183Z,10.00
2023-05-14T05:19:35.832Z,10.00
2023-05-14T05:22:06.965Z,10.00
2023-05-14T05:24:33.777Z,10.00
2023-05-14T05:27:02.074Z,10.10
2023-05-14T05:29:29.153Z,10.00
2023-05-14T05:31:56.169Z,10.00
2023-05-14T05:34:23.241Z,10.00
2023-05-14T05:36:51.058Z,10.10
2023-05-14T05:39:17.855Z,10.10
2023-05-14T05:41:44.684Z,10.20
2023-05-14T05:44:11.552Z,10.20
2023-05-14T05:46:38.416Z,10.30
2023-05-14T05:49:05.329Z,10.40
2023-05-14T05:51:33.255Z,10.40
2023-05-14T05:54:00.179Z,10.40
2023-05-14T05:56:27.075Z,10.30
2023-05-14T05:58:53.963Z,10.30
2023-05-14T06:01:20.779Z,10.10
2023-05-14T06:03:48.726Z,10.00
2023-05-14T06:06:15.942Z,9.90
2023-05-14T06:08:42.847Z,10.10
2023-05-14T06:11:09.704Z,10.10
2023-05-14T06:13:41.471Z,10.10
2023-05-14T06:16:08.497Z,10.30
2023-05-14T06:18:35.480Z,10.10
2023-05-14T06:21:02.423Z,10.30
2023-05-14T06:23:29.866Z,10.40
2023-05-14T06:25:58.894Z,10.50
2023-05-14T06:28:28.539Z,10.50
2023-05-14T06:30:55.885Z,10.50
2023-05-14T06:33:29.878Z,10.50
2023-05-14T06:36:01.130Z,10.50
2023-05-14T06:38:27.979Z,10.70
2023-05-14T06:40:54.750Z,10.70
2023-05-14T06:43:22.133Z,10.70
2023-05-14T06:45:49.904Z,10.50
2023-05-14T06:48:20.909Z,10.40
2023-05-14T06:50:49.016Z,10.50
2023-05-14T06:53:16.184Z,10.50
2023-05-14T06:55:43.078Z,10.50
2023-05-14T06:58:10.140Z,10.50
2023-05-14T07:00:37.060Z,10.50
2023-05-14T07:03:04.282Z,10.60
2023-05-14T07:05:31.586Z,10.80
2023-05-14T07:07:58.831Z,10.70
2023-05-14T07:10:25.922Z,10.70
2023-05-14T07:12:52.932Z,10.90
2023-05-14T07:15:19.739Z,10.90
2023-05-14T07:17:46.642Z,11.20
2023-05-14T07:20:13.612Z,11.40
2023-05-14T07:22:40.628Z,11.50
2023-05-14T07:25:07.902Z,11.50
2023-05-14T07:27:34.863Z,11.20
2023-05-14T07:30:04.130Z,11.10
2023-05-14T07:32:31.273Z,10.90
2023-05-14T07:34:58.361Z,10.70
2023-05-14T07:37:26.268Z,10.80
2023-05-14T07:39:53.883Z,11.10
2023-05-14T07:42:34.592Z,11.20
2023-05-14T07:45:02.573Z,11.20
2023-05-14T07:47:29.686Z,11.60
2023-05-14T07:49:57.351Z,12.10
2023-05-14T07:52:25.621Z,12.50
2023-05-14T07:54:52.684Z,12.90
2023-05-14T07:57:20.261Z,12.80
2023-05-14T07:59:48.647Z,12.70
2023-05-14T08:02:16.936Z,12.60
2023-05-14T08:04:44.434Z,12.70
2023-05-14T08:07:11.461Z,13.00
2023-05-14T08:09:38.336Z,13.10
2023-05-14T08:12:06.044Z,13.50
2023-05-14T08:14:32.869Z,13.80
2023-05-14T08:16:59.682Z,13.90
2023-05-14T08:19:27.794Z,13.40
2023-05-14T08:21:54.725Z,13.50
2023-05-14T08:24:21.785Z,13.90
2023-05-14T08:26:48.753Z,14.10
2023-05-14T08:29:16.573Z,14.30
2023-05-14T08:31:43.843Z,14.30
2023-05-14T08:34:10.843Z,14.50
2023-05-14T08:36:38.648Z,15.10
2023-05-14T08:39:08.208Z,15.40
2023-05-14T08:41:36.043Z,16.10
2023-05-14T08:44:18.254Z,15.90
2023-05-14T08:46:45.866Z,15.70
2023-05-14T08:49:40.931Z,16.60
2023-05-14T08:52:09.206Z,17.10
2023-05-14T08:54:38.948Z,18.10
2023-05-14T08:57:07.297Z,18.90
2023-05-14T08:59:34.106Z,19.90
2023-05-14T09:02:03.320Z,19.60
2023-05-14T09:04:31.145Z,19.70
2023-05-14T09:07:01.398Z,20.20
2023-05-14T09:09:28.557Z,20.70
2023-05-14T09:11:55.452Z,21.10
2023-05-14T09:14:23.158Z,21.20
2023-05-14T09:16:51.301Z,19.80
2023-05-14T09:19:19.497Z,18.70
2023-05-14T09:21:48.066Z,18.80
2023-05-14T09:24:22.463Z,18.20
2023-05-14T09:26:57.200Z,17.50
2023-05-14T09:29:28.882Z,17.00
2023-05-14T09:31:57.473Z,16.30
2023-05-14T09:34:29.454Z,15.90
2023-05-14T09:37:01.950Z,15.80
2023-05-14T09:39:30.460Z,15.60
2023-05-14T09:41:57.492Z,15.80
2023-05-14T09:44:25.332Z,16.20
2023-05-14T09:46:53.165Z,17.30
2023-05-14T09:49:20.986Z,17.80
2023-05-14T09:51:49.507Z,17.10
2023-05-14T09:54:16.486Z,16.90
2023-05-14T09:56:44.305Z,16.60
2023-05-14T09:59:11.476Z,16.40
2023-05-14T10:01:38.809Z,16.60
2023-05-14T10:04:07.709Z,16.50
2023-05-14T10:06:40.176Z,15.90
2023-05-14T10:09:16.542Z,15.50
2023-05-14T10:11:44.585Z,15.50
2023-05-14T10:14:20.904Z,14.90
2023-05-14T10:16:51.438Z,15.00
2023-05-14T10:19:21.230Z,15.00
2023-05-14T10:21:53.144Z,15.20
2023-05-14T10:24:21.080Z,15.60
2023-05-14T10:26:50.857Z,16.20
2023-05-14T10:29:17.732Z,16.10
2023-05-14T10:31:49.570Z,16.20
2023-05-14T10:34:43.871Z,16.50
2023-05-14T10:37:12.929Z,17.10
2023-05-14T10:39:59.459Z,17.00
2023-05-14T10:42:28.917Z,17.20
2023-05-14T10:45:01.891Z,17.80
2023-05-14T10:47:29.657Z,18.30
2023-05-14T10:49:58.711Z,18.50
2023-05-14T10:52:26.466Z,18.50
2023-05-14T10:55:10.739Z,18.20
2023-05-14T10:57:39.621Z,17.70
2023-05-14T11:00:08.749Z,17.50
2023-05-14T11:02:39.889Z,16.90
2023-05-14T11:05:27.501Z,16.90
2023-05-14T11:07:57.216Z,17.40
2023-05-14T11:10:30.109Z,17.20
2023-05-14T11:12:58.367Z,17.80
2023-05-14T11:15:26.884Z,18.90
2023-05-14T11:17:54.136Z,19.40
2023-05-14T11:20:21.901Z,18.90
2023-05-14T11:22:51.725Z,18.60
2023-05-14T11:25:18.931Z,19.30
2023-05-14T11:27:47.200Z,20.30
2023-05-14T11:30:15.173Z,21.10
2023-05-14T11:32:43.662Z,20.90
2023-05-14T11:35:10.751Z,21.50
2023-05-14T11:37:38.433Z,21.50
2023-05-14T11:40:09.857Z,21.60
2023-05-14T11:42:37.355Z,21.30
2023-05-14T11:45:04.616Z,20.80
2023-05-14T11:47:31.904Z,20.20
2023-05-14T11:50:00.638Z,20.80
2023-05-14T11:52:27.500Z,20.20
2023-05-14T11:54:54.319Z,20.00
2023-05-14T11:57:24.020Z,20.10
2023-05-14T11:59:58.530Z,21.00
2023-05-14T12:02:30.717Z,21.00
2023-05-14T12:04:57.799Z,20.10
2023-05-14T12:07:28.528Z,19.70
2023-05-14T12:10:02.046Z,19.10
2023-05-14T12:12:35.670Z,19.30
2023-05-14T12:15:02.597Z,19.00
2023-05-14T12:17:29.500Z,19.60
2023-05-14T12:19:57.492Z,19.20
2023-05-14T12:22:24.340Z,18.70
2023-05-14T12:24:58.925Z,19.30
2023-05-14T12:27:27.487Z,19.60
2023-05-14T12:30:19.958Z,19.20
2023-05-14T12:32:53.042Z,19.50
2023-05-14T12:35:21.568Z,18.40
2023-05-14T12:37:48.532Z,17.20
2023-05-14T12:40:15.406Z,17.80
2023-05-14T12:42:42.222Z,18.30
2023-05-14T12:45:09.374Z,18.50
2023-05-14T12:47:37.069Z,18.80
2023-05-14T12:50:04.824Z,18.60
2023-05-14T12:55:01.757Z,17.70
2023-05-14T12:57:30.154Z,17.40
2023-05-14T12:59:57.619Z,17.30
2023-05-14T13:02:24.439Z,18.00
2023-05-14T13:04:53.220Z,17.60
2023-05-14T13:07:20.079Z,17.30
2023-05-14T13:09:46.880Z,16.70
2023-05-14T13:12:13.705Z,16.50
2023-05-14T13:14:40.612Z,16.70
2023-05-14T13:17:08.178Z,16.80
2023-05-14T13:19:35.230Z,17.00
2023-05-14T13:22:02.416Z,16.40
2023-05-14T13:24:29.292Z,15.90
2023-05-14T13:26:56.182Z,15.60
2023-05-14T13:29:24.322Z,15.70
2023-05-14T13:31:51.204Z,15.80
2023-05-14T13:34:18.010Z,15.80
2023-05-14T13:36:45.073Z,15.90
2023-05-14T13:39:13.618Z,15.90
2023-05-14T13:41:41.295Z,16.30
2023-05-14T13:44:08.191Z,16.20
2023-05-14T13:46:35.074Z,16.20
2023-05-14T13:49:02.189Z,16.30
2023-05-14T13:51:29.144Z,16.00
2023-05-14T13:53:56.329Z,15.90
2023-05-14T13:56:23.591Z,15.80
2023-05-14T13:58:50.410Z,15.80
2023-05-14T14:01:20.596Z,15.80
2023-05-14T14:03:49.816Z,15.90
2023-05-14T14:06:19.402Z,16.10
2023-05-14T14:08:46.191Z,16.40
2023-05-14T14:11:13.713Z,16.60
2023-05-14T14:13:41.491Z,16.30
2023-05-14T14:16:08.376Z,16.20
2023-05-14T14:18:35.591Z,16.40
2023-05-14T14:21:02.417Z,16.10
2023-05-14T14:23:29.253Z,16.30
2023-05-14T14:25:56.068Z,16.20
2023-05-14T14:28:22.851Z,16.10
2023-05-14T14:30:50.757Z,16.10
2023-05-14T14:33:17.625Z,16.10
2023-05-14T14:35:44.640Z,16.20
2023-05-14T14:38:11.510Z,16.20
2023-05-14T14:40:38.396Z,16.40
2023-05-14T14:43:05.319Z,16.70
2023-05-14T14:45:34.516Z,16.70
2023-05-14T14:48:26.373Z,16.80
2023-05-14T14:50:54.467Z,16.90
2023-05-14T14:53:22.511Z,16.60
2023-05-14T14:55:50.242Z,16.40
2023-05-14T14:58:18.745Z,16.40
2023-05-14T15:00:45.911Z,16.20
2023-05-14T15:03:14.984Z,16.10
2023-05-14T15:05:42.042Z,16.00
2023-05-14T15:08:08.863Z,16.00
2023-05-14T15:10:38.230Z,16.00
2023-05-14T15:13:06.240Z,16.10
2023-05-14T15:15:34.735Z,16.30
2023-05-14T15:18:02.232Z,16.20
2023-05-14T15:20:29.208Z,16.20
2023-05-14T15:22:56.266Z,16.20
2023-05-14T15:25:27.082Z,15.90
2023-05-14T15:27:53.992Z,15.70
2023-05-14T15:30:20.881Z,15.70
2023-05-14T15:32:47.815Z,15.60
2023-05-14T15:35:14.592Z,15.40
2023-05-14T15:37:43.391Z,15.20
2023-05-14T15:40:11.071Z,14.90
2023-05-14T15:42:44.132Z,14.80
2023-05-14T15:45:13.102Z,14.70
2023-05-14T15:47:40.929Z,14.50
2023-05-14T15:50:09.099Z,14.60
2023-05-14T15:52:36.521Z,14.70
2023-05-14T15:55:05.061Z,14.80
2023-05-14T15:57:32.054Z,14.70
2023-05-14T15:59:58.868Z,14.40
2023-05-14T16:02:25.832Z,14.00
2023-05-14T16:04:52.629Z,13.90
2023-05-14T16:07:19.451Z,13.70
2023-05-14T16:09:46.247Z,13.60
2023-05-14T16:12:13.290Z,13.60
2023-05-14T16:14:41.986Z,13.70
2023-05-14T16:17:09.195Z,13.70
2023-05-14T16:19:43.454Z,13.60
2023-05-14T16:22:20.290Z,13.60
2023-05-14T16:24:47.153Z,13.40
2023-05-14T16:27:14.021Z,13.50
2023-05-14T16:29:40.802Z,13.40
2023-05-14T16:32:07.808Z,13.50
2023-05-14T16:34:34.841Z,13.60
2023-05-14T16:37:01.763Z,13.50
2023-05-14T16:39:28.643Z,13.50
2023-05-14T16:41:55.525Z,13.40
2023-05-14T16:44:22.396Z,13.40
2023-05-14T16:46:49.250Z,13.30
2023-05-14T16:49:16.822Z,13.40
2023-05-14T16:51:43.945Z,13.50
2023-05-14T16:54:10.951Z,13.40
2023-05-14T16:56:37.841Z,13.40
2023-05-14T16:59:10.309Z,13.30
2023-05-14T17:01:37.612Z,13.40
2023-05-14T17:04:07.152Z,13.50
2023-05-14T17:06:34.588Z,13.40
2023-05-14T17:09:01.431Z,13.40
2023-05-14T17:11:29.473Z,13.40
2023-05-14T17:14:00.822Z,13.30
2023-05-14T17:19:08.778Z,13.30
2023-05-14T17:21:35.620Z,13.20
2023-05-14T17:24:05.867Z,13.20
2023-05-14T17:26:34.982Z,13.20
2023-05-14T17:29:04.131Z,13.10
2023-05-14T17:31:32.919Z,13.10
2023-05-14T17:33:59.866Z,13.00
2023-05-14T17:36:28.674Z,13.00
2023-05-14T17:38:55.626Z,13.10
2023-05-14T17:41:22.404Z,13.10
2023-05-14T17:43:52.356Z,13.10
2023-05-14T17:46:19.219Z,13.00
2023-05-14T17:48:46.167Z,13.10
2023-05-14T17:51:12.960Z,13.10
2023-05-14T17:53:39.810Z,13.20
2023-05-14T17:56:06.918Z,13.30
2023-05-14T17:58:33.761Z,13.30
2023-05-14T18:01:00.763Z,13.20
2023-05-14T18:03:27.749Z,13.00
2023-05-14T18:05:54.792Z,13.00
2023-05-14T18:08:21.889Z,13.00
2023-05-14T18:10:48.808Z,12.90
2023-05-14T18:13:15.706Z,13.00
2023-05-14T18:15:42.767Z,13.10
2023-05-14T18:18:09.771Z,13.00
2023-05-14T18:20:36.625Z,12.90
2023-05-14T18:23:03.924Z,12.90
2023-05-14T18:25:30.850Z,12.90
2023-05-14T18:27:57.898Z,12.70
2023-05-14T18:30:24.866Z,12.70
2023-05-14T18:32:51.840Z,12.80
2023-05-14T18:35:18.913Z,12.70
2023-05-14T18:37:50.776Z,12.60
2023-05-14T18:40:18.880Z,12.60
2023-05-14T18:42:46.007Z,12.60
2023-05-14T18:45:15.627Z,12.60
2023-05-14T18:47:42.894Z,12.50
2023-05-14T18:50:10.114Z,12.50
2023-05-14T18:52:37.272Z,12.40
2023-05-14T18:55:04.505Z,12.20
2023-05-14T18:57:32.904Z,12.10
2023-05-14T19:00:03.881Z,12.10
2023-05-14T19:02:30.861Z,12.00
2023-05-14T19:04:57.871Z,12.00
2023-05-14T19:07:24.726Z,11.90
2023-05-14T19:10:02.058Z,11.90
2023-05-14T19:12:31.799Z,11.80
2023-05-14T19:14:58.679Z,11.80
2023-05-14T19:17:25.786Z,11.80
2023-05-14T19:19:52.694Z,11.80
2023-05-14T19:22:19.535Z,11.80
2023-05-14T19:24:46.537Z,11.70
2023-05-14T19:27:16.194Z,11.70
2023-05-14T19:29:43.711Z,11.50
2023-05-14T19:32:11.144Z,11.40
2023-05-14T19:34:38.013Z,11.30
2023-05-14T19:37:05.345Z,11.30
2023-05-14T19:39:32.183Z,11.30
2023-05-14T19:41:59.026Z,11.30
2023-05-14T19:44:26.004Z,11.40
2023-05-14T19:46:53.064Z,11.30
2023-05-14T19:49:19.870Z,11.30
2023-05-14T19:51:46.834Z,11.30
2023-05-14T19:54:14.668Z,11.30
2023-05-14T19:56:43.255Z,11.30
2023-05-14T19:59:10.072Z,11.30
2023-05-14T20:01:37.081Z,11.30
2023-05-14T20:04:04.114Z,11.30
2023-05-14T20:06:32.187Z,11.10
2023-05-14T20:08:59.276Z,11.00
2023-05-14T20:11:26.055Z,11.00
2023-05-14T20:13:52.850Z,10.90
2023-05-14T20:16:19.754Z,11.00
2023-05-14T20:18:46.698Z,11.00
2023-05-14T20:21:13.574Z,11.00
2023-05-14T20:23:40.856Z,11.00
2023-05-14T20:26:07.825Z,11.10
2023-05-14T20:28:38.481Z,11.10
2023-05-14T20:31:11.738Z,11.10
2023-05-14T20:33:40.911Z,11.10
2023-05-14T20:36:10.665Z,11.00
2023-05-14T20:38:37.628Z,11.00
2023-05-14T20:41:04.514Z,11.00
2023-05-14T20:43:31.368Z,10.90
2023-05-14T20:46:01.353Z,11.00
2023-05-14T20:48:28.415Z,11.00
2023-05-14T20:50:55.211Z,11.00
2023-05-14T20:53:22.143Z,10.90
2023-05-14T20:55:49.184Z,10.90
2023-05-14T20:58:16.136Z,10.80
2023-05-14T21:00:43.526Z,10.70
2023-05-14T21:03:10.488Z,10.80
2023-05-14T21:05:41.585Z,10.80
2023-05-14T21:08:08.588Z,10.80
2023-05-14T21:10:35.579Z,10.80
2023-05-14T21:13:02.438Z,10.90
2023-05-14T21:15:33.048Z,10.80
2023-05-14T21:18:02.547Z,10.80
2023-05-14T21:20:29.381Z,10.80
2023-05-14T21:22:56.284Z,10.80
2023-05-14T21:25:25.776Z,10.80
2023-05-14T21:27:52.871Z,10.90
2023-05-14T21:30:20.126Z,11.00
2023-05-14T21:32:47.107Z,11.00
2023-05-14T21:35:14.252Z,10.90
2023-05-14T21:37:41.940Z,11.20
2023-05-14T21:40:09.570Z,11.30
2023-05-14T21:42:36.444Z,11.20
2023-05-14T21:45:03.738Z,11.20
2023-05-14T21:47:31.330Z,11.20
2023-05-14T21:49:58.900Z,11.20
2023-05-14T21:52:26.161Z,11.30
2023-05-14T21:54:53.046Z,11.40
2023-05-14T21:57:19.871Z,11.40
2023-05-14T21:59:46.764Z,11.40
2023-05-14T22:02:13.616Z,11.40
2023-05-14T22:04:40.579Z,11.40
2023-05-14T22:07:07.508Z,11.50
2023-05-14T22:09:34.370Z,11.50
2023-05-14T22:12:01.165Z,11.60
2023-05-14T22:14:29.762Z,11.70
2023-05-14T22:17:00.207Z,11.70
2023-05-14T22:19:27.879Z,11.80
2023-05-14T22:21:56.990Z,11.80
2023-05-14T22:24:23.747Z,11.70
2023-05-14T22:26:50.820Z,11.70
2023-05-14T22:29:17.747Z,11.70
2023-05-14T22:31:44.685Z,11.70
2023-05-14T22:34:11.600Z,11.80
2023-05-14T22:36:38.472Z,11.80
2023-05-14T22:39:05.340Z,11.80
2023-05-14T22:41:32.426Z,11.90
2023-05-14T22:44:07.917Z,12.00
2023-05-14T22:46:35.103Z,11.90
2023-05-14T22:49:08.362Z,11.90
2023-05-14T22:51:41.314Z,11.80
2023-05-14T22:54:09.629Z,11.80
2023-05-14T22:56:39.200Z,11.90
2023-05-14T22:59:06.052Z,11.80
2023-05-14T23:01:33.057Z,11.80
2023-05-14T23:04:00.148Z,11.80
2023-05-14T23:06:31.342Z,11.90
2023-05-14T23:09:00.354Z,11.90
2023-05-14T23:11:29.511Z,11.90
2023-05-14T23:13:56.431Z,11.90
2023-05-14T23:16:23.427Z,11.90
2023-05-14T23:18:50.748Z,11.90
2023-05-14T23:21:22.342Z,11.90
2023-05-14T23:23:49.394Z,11.90
2023-05-14T23:26:16.362Z,12.00
2023-05-14T23:28:45.490Z,12.00
2023-05-14T23:31:14.383Z,11.90
2023-05-14T23:33:41.491Z,11.90
2023-05-14T23:36:08.755Z,11.90
2023-05-14T23:38:35.777Z,12.00
2023-05-14T23:41:02.685Z,12.10
2023-05-14T23:43:32.079Z,12.10
2023-05-14T23:45:59.028Z,12.10
2023-05-14T23:48:26.054Z,12.20
2023-05-14T23:50:52.947Z,12.20
2023-05-14T23:53:22.207Z,12.20
2023-05-14T23:55:49.490Z,12.10
2023-05-14T23:58:16.482Z,12.10
